Monday, November 20, 2017, 2:02 AM GMT
Back to Local

CYSC, Sherbrooke, Que.

Location: , , Canada Lat: 45.4
Local Time: 2:02 AM GMT ( 2:02 GMT) Lon: -71.883
Time Zone: GMT Elev: 557 ft

Show me the last for .
Show Decoded

2017-11-20 01:50 METAR CYSC 200150Z AUTO 27016KT 9SM -SN BKN022 OVC029 M03/M06 A2947 RMK SLP992 =
2017-11-20 01:47 METAR CYSC 200147Z AUTO 28014G19KT 9SM -SN SCT022 OVC029 M03/M06 A2947 RMK
                 SLP992 =
2017-11-20 01:45 METAR CYSC 200145Z AUTO 28014G20KT 9SM -SN BKN024 OVC031 M03/M06 A2948 RMK
                 SLP993 =
2017-11-20 01:36 METAR CYSC 200136Z AUTO 26014G23KT 9SM -SN SCT023 OVC031 M03/M06 A2947 RMK
                 SLP992 =
2017-11-20 01:35 METAR CYSC 200135Z AUTO 27013G23KT 9SM -SN BKN023 OVC031 M03/M06 A2947 RMK
                 SLP992 =
2017-11-20 01:22 METAR CYSC 200122Z AUTO 27010G17KT 9SM -SN OVC025 M03/M05 A2947 RMK SLP991 =
2017-11-20 01:18 METAR CYSC 200118Z AUTO 26010G17KT 9SM -SN BKN023 OVC028 M03/M05 A2947 RMK
                 SLP991 =
2017-11-20 01:17 METAR CYSC 200117Z AUTO 27011G19KT 9SM -SN SCT021 OVC028 M03/M05 A2947 RMK
                 SLP992 =
2017-11-20 01:14 METAR CYSC 200114Z AUTO 26010G19KT 9SM -SN BKN021 OVC028 M03/M05 A2947 RMK
                 SLP991 =
2017-11-20 01:00 METAR CYSC 200100Z AUTO 27015G20KT 9SM -SN FEW021 OVC031 M03/M06 A2946 RMK
                 SLP987 =
2017-11-20 00:34 METAR CYSC 200034Z AUTO 27015G21KT 9SM -SN SCT019 OVC031 M03/M06 A2945 RMK
                 SLP985 =
2017-11-20 00:00 METAR CYSC 200000Z AUTO 27014G23KT 9SM -SN BKN024 OVC030 M03/M06 A2944 RMK
                 SLP982 =
2017-11-19 23:56 METAR CYSC 192356Z AUTO 27016G23KT 9SM -SN BKN024 OVC030 M03/M06 A2944 RMK
                 SLP981 =
2017-11-19 23:52 METAR CYSC 192352Z AUTO 27015G23KT 9SM -SN OVC026 M03/M06 A2944 RMK SLP981 =
2017-11-19 23:41 METAR CYSC 192341Z AUTO 27014G24KT 9SM -SN BKN022 OVC027 M03/M06 A2944 RMK
                 SLP980 =
2017-11-19 23:39 METAR CYSC 192339Z AUTO 27017G26KT 9SM -SN OVC025 M03/M06 A2944 RMK SLP980 =
2017-11-19 23:00 METAR CYSC 192300Z AUTO 26014G23KT 9SM -SN OVC021 M03/M06 A2943 RMK PRESRR
                 SLP977 =
2017-11-19 22:44 METAR CYSC 192244Z AUTO 27011G25KT 9SM -SN BKN023 OVC031 M03/M06 A2941 RMK
                 PRESRR SLP972 =
2017-11-19 22:43 METAR CYSC 192243Z AUTO 27014G25KT 9SM BKN023 OVC031 M03/M06 A2941 RMK PRESRR
                 SLP972 =
2017-11-19 22:27 METAR CYSC 192227Z AUTO 27019G27KT 9SM -SN BKN021 OVC030 M03/M06 A2940 RMK
                 SLP965 =
2017-11-19 22:06 METAR CYSC 192206Z AUTO 28017G26KT 9SM OVC019 M03/M06 A2939 RMK PRESRR SLP964 =
2017-11-19 22:00 METAR CYSC 192200Z AUTO 27019G25KT 9SM -SN OVC019 M03/M06 A2938 RMK PRESRR
                 SLP961 =
2017-11-19 21:36 METAR CYSC 192136Z AUTO 27021G32KT 9SM -SN BKN022 OVC028 M03/M05 A2936 RMK
                 PRESRR SLP953 =
2017-11-19 21:25 METAR CYSC 192125Z AUTO 27027G35KT 9SM BKN022 OVC029 M03/M06 A2934 RMK SLP946 =
2017-11-19 21:18 METAR CYSC 192118Z AUTO 28029G35KT 9SM -SN BKN022 OVC029 M02/M06 A2934 RMK
                 SLP947 =
2017-11-19 21:16 METAR CYSC 192116Z AUTO 27022G32KT 9SM -SN SCT019 OVC026 M02/M05 A2935 RMK
                 PRESRR SLP949 =
2017-11-19 21:00 METAR CYSC 192100Z AUTO 27017G26KT 8SM -SN BKN017 OVC025 M02/M05 A2933 RMK
                 PRESRR SLP943 =
2017-11-19 20:08 METAR CYSC 192008Z AUTO 27013G30KT 9SM -SN BKN017 OVC024 M02/M04 A2929 RMK
                 PRESRR SLP930 =
2017-11-19 20:00 METAR CYSC 192000Z AUTO 28023G30KT 9SM BKN017 OVC024 M02/M04 A2928 RMK PRESRR
                 SLP926 =
2017-11-19 19:59 METAR CYSC 191959Z AUTO 27024G30KT 9SM OVC017 M02/M04 A2928 RMK PRESRR SLP925 =
2017-11-19 19:38 METAR CYSC 191938Z AUTO 26018G28KT 9SM -SN OVC015 M01/M03 A2926 RMK PRESRR
                 SLP919 =
2017-11-19 19:21 METAR CYSC 191921Z AUTO 27022G33KT 9SM OVC015 M01/M03 A2924 RMK SLP914 =
2017-11-19 19:00 METAR CYSC 191900Z AUTO 26016G24KT 9SM -SN OVC015 M01/M02 A2923 RMK SLP907 =
2017-11-19 18:43 METAR CYSC 191843Z AUTO 25014G21KT 6SM -SN OVC015 M00/M02 A2922 RMK PRESRR
                 SLP905 =
2017-11-19 18:00 METAR CYSC 191800Z AUTO 26016G28KT 3SM -SN SCT010 BKN016 OVC021 00/M01 A2919 RMK
                 SLP894 =
2017-11-19 17:50 METAR CYSC 191750Z AUTO 25011G24KT 5SM -SN BKN010 OVC017 01/M00 A2918 RMK PRESRR
                 SLP892 =
2017-11-19 17:10 METAR CYSC 191710Z AUTO 26015G25KT 8SM -SN OVC012 01/M00 A2914 RMK PRESRR SLP878
                 =
2017-11-19 17:04 METAR CYSC 191704Z AUTO 26014G25KT 9SM -RASN BKN010 OVC014 01/M00 A2914 RMK
                 PRESRR SLP876 =
2017-11-19 17:00 METAR CYSC 191700Z AUTO 27014G24KT 9SM -RA OVC010 01/00 A2913 RMK PRESRR SLP873
                 =
2017-11-19 16:12 METAR CYSC 191612Z AUTO 26016G26KT 210V290 9SM -RA SCT005 BKN010 OVC015 06/04
                 A2904 RMK PRESRR SLP843 DENSITY ALT 800FT =
2017-11-19 16:04 METAR CYSC 191604Z AUTO 25014G19KT 210V290 6SM -RA BR OVC005 06/06 A2903 RMK
                 PRESRR SLP839 DENSITY ALT 900FT =
2017-11-19 16:00 METAR CYSC 191600Z AUTO 26010KT 4SM -RA BR OVC005 06/06 A2903 RMK SLP838 DENSITY
                 ALT 800FT =
2017-11-19 15:54 METAR CYSC 191554Z AUTO 26008KT 3SM -RA BR BKN005 OVC029 05/05 A2902 RMK SLP837
                 DENSITY ALT 800FT =
2017-11-19 15:50 METAR CYSC 191550Z AUTO 26007KT 2 1/4SM -RA BR BKN005 BKN016 OVC032 05/05 A2902
                 RMK SLP836 DENSITY ALT 800FT =
2017-11-19 15:43 METAR CYSC 191543Z AUTO 27006KT 2 1/2SM -RA BR SCT005 BKN009 BKN016 OVC025 05/05
                 A2901 RMK PRESRR SLP833 DENSITY ALT 800FT =
2017-11-19 15:42 METAR CYSC 191542Z AUTO 26006KT 3SM -RA BR SCT005 BKN009 BKN016 OVC029 05/05
                 A2901 RMK PRESRR SLP834 DENSITY ALT 800FT =
2017-11-19 15:27 METAR CYSC 191527Z AUTO 00000KT 4SM -RA BR FEW011 BKN019 BKN025 OVC031 05/05
                 A2899 RMK SLP827 DENSITY ALT 800FT =
2017-11-19 15:24 METAR CYSC 191524Z AUTO VRB02KT 4SM -RA BR FEW011 SCT017 OVC025 05/05 A2899 RMK
                 SLP827 DENSITY ALT 800FT =
2017-11-19 15:20 METAR CYSC 191520Z AUTO VRB02KT 5SM -RA BR FEW011 BKN019 OVC025 05/05 A2899 RMK
                 SLP827 DENSITY ALT 800FT =
2017-11-19 15:19 METAR CYSC 191519Z AUTO 23003KT 180V280 6SM -RA BR FEW011 SCT017 BKN021 OVC025
                 05/05 A2899 RMK SLP827 DENSITY ALT 800FT =
2017-11-19 15:16 METAR CYSC 191516Z AUTO 27004KT 180V300 9SM -RA FEW011 SCT017 OVC025 05/05 A2900
                 RMK SLP829 DENSITY ALT 800FT =
2017-11-19 15:15 METAR CYSC 191515Z AUTO 26003KT 180V310 9SM -RA FEW011 BKN020 OVC025 05/05 A2900
                 RMK SLP828 DENSITY ALT 800FT =
2017-11-19 15:14 METAR CYSC 191514Z AUTO VRB02KT 9SM -RA FEW011 SCT018 OVC025 05/04 A2900 RMK
                 SLP828 =
2017-11-19 15:02 METAR CYSC 191502Z AUTO 00000KT 9SM -RA BKN021 OVC027 05/04 A2900 RMK SLP828 =
2017-11-19 15:00 METAR CYSC 191500Z AUTO 00000KT 9SM OVC021 05/04 A2899 RMK SLP827 =
2017-11-19 14:51 METAR CYSC 191451Z AUTO VRB02KT 9SM BKN019 OVC026 04/04 A2899 RMK SLP827 =
2017-11-19 14:20 METAR CYSC 191420Z AUTO 06003KT 6SM -RA BR OVC019 04/04 A2900 RMK SLP829 =
2017-11-19 14:00 METAR CYSC 191400Z AUTO VRB02KT 5SM -RA BR OVC019 04/04 A2901 RMK SLP832 =
2017-11-19 13:59 METAR CYSC 191359Z AUTO VRB02KT 5SM -RA BR OVC019 04/04 A2901 RMK SLP832 =
2017-11-19 13:38 METAR CYSC 191338Z AUTO 03004KT 360V070 6SM -RA BR OVC017 04/04 A2902 RMK SLP835
                 =
2017-11-19 13:00 METAR CYSC 191300Z AUTO 06005KT 3SM RA BR OVC019 04/04 A2904 RMK SLP841 =
2017-11-19 12:52 METAR CYSC 191252Z AUTO 09004KT 5SM -RA BR OVC019 04/03 A2906 RMK SLP848 =
2017-11-19 12:15 METAR CYSC 191215Z AUTO 04002KT 7SM -RA BKN023 OVC031 03/03 A2905 RMK SLP847 =
2017-11-19 12:13 METAR CYSC 191213Z AUTO 04002KT 6SM -RA BR BKN025 OVC031 03/03 A2905 RMK SLP847
                 =
2017-11-19 12:00 METAR CYSC 191200Z AUTO 03003KT 3SM -RA BR BKN025 OVC030 02/02 A2906 RMK PCPN
                 2.5MM PAST HR SLP850 =
2017-11-19 11:46 METAR CYSC 191146Z AUTO 02003KT 3SM -RA BR SCT022 OVC030 02/02 A2907 RMK SLP853
                 =
2017-11-19 11:39 METAR CYSC 191139Z AUTO 02002KT 2SM -RA BR BKN025 OVC030 02/02 A2907 RMK VIS VRB
                 1 1/4-3 SLP855 =
2017-11-19 11:37 METAR CYSC 191137Z AUTO 02002KT 1 3/4SM -RA BR BKN025 OVC030 02/02 A2907 RMK VIS
                 VRB 1 1/4-2 1/2 SLP855 =
2017-11-19 11:35 METAR CYSC 191135Z AUTO VRB02KT 2SM RA BR BKN025 OVC030 02/02 A2907 RMK VIS VRB
                 1 1/4-3 SLP855 =
2017-11-19 11:34 METAR CYSC 191134Z AUTO VRB02KT 2SM RA BR BKN023 OVC030 02/02 A2908 RMK SLP856 =
2017-11-19 11:24 METAR CYSC 191124Z AUTO VRB02KT 2 1/4SM RA BR OVC025 02/02 A2908 RMK VIS VRB 1
                 1/2-3 SLP858 =
2017-11-19 11:17 METAR CYSC 191117Z AUTO VRB02KT 5SM -RA BR OVC025 02/02 A2909 RMK SLP860 =
2017-11-19 11:05 METAR CYSC 191105Z AUTO 05003KT 9SM -RA OVC025 02/02 A2909 RMK SLP860 =
2017-11-19 11:00 METAR CYSC 191100Z AUTO 07004KT 9SM -RA OVC023 02/02 A2909 RMK SLP860 =
2017-11-19 10:45 METAR CYSC 191045Z AUTO 07003KT 6SM -RA BR OVC023 02/01 A2910 RMK SLP865 =
2017-11-19 10:31 METAR CYSC 191031Z AUTO 07003KT 5SM -RA BR OVC023 02/01 A2910 RMK PRESFR SLP866
                 =
2017-11-19 10:18 METAR CYSC 191018Z AUTO 09004KT 8SM -RA OVC023 02/02 A2913 RMK SLP873 =
2017-11-19 10:03 METAR CYSC 191003Z AUTO 09003KT 9SM -RA OVC025 02/02 A2913 RMK SLP875 =
2017-11-19 10:01 METAR CYSC 191001Z AUTO 09003KT 9SM -RA BKN023 OVC028 02/02 A2914 RMK SLP876 =
2017-11-19 10:00 METAR CYSC 191000Z AUTO 10003KT 060V150 9SM -RA OVC026 02/02 A2914 RMK SLP877 =
2017-11-19 09:42 METAR CYSC 190942Z AUTO 05006KT 9SM -RA OVC028 02/02 A2911 RMK PRESFR SLP869 =
2017-11-19 09:23 METAR CYSC 190923Z AUTO 02006KT 9SM OVC028 01/01 A2914 RMK PRESFR SLP879 =
2017-11-19 09:00 METAR CYSC 190900Z AUTO 05003KT 350V070 8SM -RA BKN030 OVC037 01/01 A2915 RMK
                 PRESFR SLP882 =
2017-11-19 08:37 METAR CYSC 190837Z AUTO 10006KT 9SM -RA SCT021 BKN028 OVC039 02/02 A2917 RMK
                 PRESFR SLP888 =
2017-11-19 08:23 METAR CYSC 190823Z AUTO 08004KT 050V120 6SM -RA BR OVC021 01/01 A2920 RMK SLP897
                 =
2017-11-19 08:00 METAR CYSC 190800Z AUTO 32003KT 5SM -RA BR BKN023 OVC030 01/01 A2923 RMK SLP907
                 =
2017-11-19 07:59 METAR CYSC 190759Z AUTO 31003KT 300V010 6SM -RA BR BKN023 OVC030 01/01 A2923 RMK
                 SLP908 =
2017-11-19 07:10 METAR CYSC 190710Z AUTO 00000KT 9SM -RA OVC030 01/00 A2924 RMK SLP913 =
2017-11-19 07:07 METAR CYSC 190707Z AUTO 05002KT 9SM OVC030 01/00 A2925 RMK SLP914 =
2017-11-19 07:00 METAR CYSC 190700Z AUTO 07003KT 9SM -RA OVC032 01/01 A2925 RMK SLP915 =
2017-11-19 06:31 METAR CYSC 190631Z AUTO VRB02KT 9SM -RA SCT029 BKN037 OVC044 01/00 A2926 RMK
                 SLP920 =
2017-11-19 06:11 METAR CYSC 190611Z AUTO 07005KT 9SM BKN029 OVC037 01/00 A2927 RMK SLP922 =
2017-11-19 06:00 METAR CYSC 190600Z AUTO 08003KT 9SM -RA FEW029 BKN035 OVC045 01/M00 A2928 RMK
                 SLP926 =
2017-11-19 05:39 METAR CYSC 190539Z AUTO 06007KT 9SM -RA BKN026 OVC035 00/M00 A2930 RMK PRESFR
                 SLP932 =
2017-11-19 05:28 METAR CYSC 190528Z AUTO 05006KT 9SM OVC026 00/M00 A2932 RMK PRESFR SLP939 =
2017-11-19 05:24 METAR CYSC 190524Z AUTO 06006KT 9SM OVC024 00/M00 A2932 RMK PRESFR SLP941 =
2017-11-19 05:09 METAR CYSC 190509Z AUTO 07005KT 9SM -RA OVC024 00/M00 A2935 RMK SLP949 =
2017-11-19 05:00 METAR CYSC 190500Z AUTO 07006KT 9SM -RA OVC026 00/M00 A2935 RMK PRESFR SLP951 =
2017-11-19 04:14 METAR CYSC 190414Z AUTO 09004KT 9SM -RA OVC026 00/M01 A2941 RMK SLP970 =
2017-11-19 04:00 METAR CYSC 190400Z AUTO 07005KT 9SM -RA OVC024 00/M01 A2941 RMK SLP971 =
2017-11-19 03:00 METAR CYSC 190300Z AUTO 08005KT 9SM -RA OVC024 01/M03 A2945 RMK SLP986 =
2017-11-19 02:59 METAR CYSC 190259Z AUTO 07005KT 9SM -RA OVC024 01/M03 A2946 RMK SLP987 =
2017-11-19 02:37 METAR CYSC 190237Z AUTO 07003KT 9SM OVC026 01/M04 A2947 RMK SLP993 =
2017-11-19 02:25 METAR CYSC 190225Z AUTO 09003KT 9SM -RA OVC028 01/M03 A2948 RMK SLP995 =
2017-11-19 02:11 METAR CYSC 190211Z AUTO 13007G15KT 9SM OVC030 01/M04 A2949 RMK SLP998 =

Support USWX by starting your Amazon purchase here.